Weather at Kalundborg Airfield

Public forecast

Using degrees Celsius for public forecast. Weather courtesy of forecast.io.

Closest aviation weather report (METAR) to Kalundborg Airfield

Closest report is Ringsted Airfield, 25.1 nm (46.4 km) SE.

2024/05/20 23:50 (retrieved 26 minutes ago)

EKRS 202350Z AUTO 09008KT 020V130 //// // NCD 13/13 Q1017

Closest aviation forecast (TAF) to Kalundborg Airfield

Closest forecast is Leeuwarden Air Base, 242.2 nm (448.6 km) SW.

2024/05/20 21:06 (retrieved 3 hours ago)

TAF TAF EHLW 202031Z 2021/2109 07006KT 9999 CAVOK PROB30 2021/2103 4000 BR MIFG PROB30 TEMPO 2104/2106 SCT005